Clio — 9HA4306 — position and weather

sailwx.info

Track history (hours):
 
Tides and Currents Weather Stations Pressure Air Temp Water Temp Dewpoint Dewpoint Depression Visibility Wind Speed Wind Dir Waves Ship Positions

Clio

Last reported at 2018-Jul-18 17:57 UTC. Time now 2018-Jul-21 11:01 UTC.
Position N 59°15' E 023°11'.

Length 100 m; draft 3.4 m.

Type: Passenger vessel. MMSI: 249596000.

Date/timePositionNaut miles runAvg speedWind from/ knotsBaromVisibWave heightAir tempDewpointWater temp
2018-Jul-18 17:57N 59°15' E 023°11'613.0
2018-Jul-18 17:30N 59°20' E 023°19'713.2
2018-Jul-18 17:00N 59°22' E 023°30'713.3
2018-Jul-18 16:31N 59°25' E 023°43'713.2
2018-Jul-18 16:00N 59°27' E 023°55'713.2
2018-Jul-18 15:30N 59°29' E 024°07'713.2
2018-Jul-18 15:00N 59°30' E 024°20'713.4
2018-Jul-18 14:30N 59°30' E 024°33'7 7.4
2018-Jul-18 13:31N 59°27' E 024°46'0 0.0
2018-Jul-18 12:57N 59°27' E 024°46'0 0.0
2018-Jul-18 12:27N 59°27' E 024°46'0 0.0
2018-Jul-18 11:44N 59°27' E 024°46'0 0.0
2018-Jul-18 11:30N 59°27' E 024°46'0 0.0
2018-Jul-18 10:28N 59°27' E 024°46'0 0.0
2018-Jul-18 09:57N 59°27' E 024°46'0 0.0
2018-Jul-18 09:30N 59°27' E 024°46'0 0.0
2018-Jul-18 08:57N 59°27' E 024°46'0 0.0
2018-Jul-18 08:29N 59°27' E 024°46'0 0.0
2018-Jul-18 07:57N 59°27' E 024°46'0 0.0
2018-Jul-18 07:28N 59°27' E 024°46'0 0.0
2018-Jul-18 06:57N 59°27' E 024°46'0 0.0
2018-Jul-18 06:30N 59°27' E 024°46'3 5.1
2018-Jul-18 06:01N 59°29' E 024°45'713.7
2018-Jul-18 05:31N 59°36' E 024°40'611.5
2018-Jul-18 05:01N 59°41' E 024°45'510.8
2018-Jul-18 04:31N 59°45' E 024°52'612.3
2018-Jul-18 04:00N 59°49' E 025°01'713.9
2018-Jul-18 03:30N 59°52' E 025°14'714.1
2018-Jul-18 03:00N 59°53' E 025°28'914.3
2018-Jul-18 02:23N 59°55' E 025°45'514.1
2018-Jul-18 02:00N 59°56' E 025°55'713.8
2018-Jul-18 01:31N 59°58' E 026°08'713.9
2018-Jul-18 01:00N 59°60' E 026°22'714.2
2018-Jul-18 00:30N 60°02' E 026°36'714.5
2018-Jul-18 00:01N 60°00' E 026°50'714.2
2018-Jul-17 23:31N 59°60' E 027°04'714.1
2018-Jul-17 23:01N 60°03' E 027°16'714.3
2018-Jul-17 22:31N 60°07' E 027°28'714.4
2018-Jul-17 22:01N 60°11' E 027°41'713.0
2018-Jul-17 21:30N 60°11' E 027°54'714.0
2018-Jul-17 21:00N 60°09' E 028°08'713.5
2018-Jul-17 20:30N 60°07' E 028°20'714.0
2018-Jul-17 20:01N 60°03' E 028°32'714.4
2018-Jul-17 19:31N 60°03' E 028°47'714.2
2018-Jul-17 19:01N 60°02' E 029°01'2313.3
2018-Jul-17 17:16N 59°58' E 029°47'2 6.5
2018-Jul-17 17:00N 59°57' E 029°49'610.3
2018-Jul-17 16:27N 59°55' E 029°60'4 9.6
2018-Jul-17 16:00N 59°54' E 030°08'3 5.6
2018-Jul-17 15:28N 59°54' E 030°14'2 4.1
2018-Jul-17 15:00N 59°56' E 030°16'0 0.0
2018-Jul-17 14:26N 59°56' E 030°16'0 0.0
2018-Jul-17 13:54N 59°56' E 030°16'0 0.0
2018-Jul-17 13:28N 59°56' E 030°16'0 0.0
2018-Jul-17 12:54N 59°56' E 030°16'0 0.0
2018-Jul-17 12:28N 59°56' E 030°16'0 0.0
2018-Jul-17 11:55N 59°56' E 030°16'0 0.0
2018-Jul-17 11:31N 59°56' E 030°16'0 0.0
2018-Jul-17 10:58N 59°56' E 030°16'0 0.0
2018-Jul-17 10:30N 59°56' E 030°16'0 0.0
2018-Jul-17 09:58N 59°56' E 030°16'0 0.0
2018-Jul-17 09:29N 59°56' E 030°16'0 0.0
2018-Jul-17 08:55N 59°56' E 030°16'0 0.0
2018-Jul-17 08:31N 59°56' E 030°16'0 0.0
2018-Jul-17 07:57N 59°56' E 030°16'0 0.0
2018-Jul-17 07:30N 59°56' E 030°16'0 0.0
2018-Jul-17 06:58N 59°56' E 030°16'0 0.0
2018-Jul-17 06:31N 59°56' E 030°16'0 0.0
2018-Jul-17 05:58N 59°56' E 030°16'0 0.0
2018-Jul-17 05:25N 59°56' E 030°16'0 0.0
2018-Jul-17 05:00N 59°56' E 030°16'0 0.0
2018-Jul-17 04:27N 59°56' E 030°16'0 0.0
2018-Jul-17 03:57N 59°56' E 030°16'0 0.0
2018-Jul-17 03:27N 59°56' E 030°16'0 0.0
2018-Jul-17 02:58N 59°56' E 030°16'0 0.0
2018-Jul-17 02:27N 59°56' E 030°16'0 0.0
2018-Jul-17 01:58N 59°56' E 030°16'0 0.0
2018-Jul-17 01:27N 59°56' E 030°16'0 0.0
2018-Jul-17 01:01N 59°56' E 030°16'0 0.0
2018-Jul-17 00:25N 59°56' E 030°16'0 0.0
2018-Jul-16 23:27N 59°56' E 030°16'0 0.0
2018-Jul-16 23:00N 59°56' E 030°16'0 0.0
2018-Jul-16 22:28N 59°56' E 030°16'0 0.0
2018-Jul-16 21:57N 59°56' E 030°16'0 0.0
2018-Jul-16 21:27N 59°56' E 030°16'0 0.0
2018-Jul-16 20:57N 59°56' E 030°16'0 0.0
2018-Jul-16 20:28N 59°56' E 030°16'0 0.0
2018-Jul-16 19:57N 59°56' E 030°16'0 0.0
2018-Jul-16 19:30N 59°56' E 030°16'0 0.0
2018-Jul-16 18:57N 59°56' E 030°16'0 0.0
2018-Jul-16 18:30N 59°56' E 030°16'0 0.0
2018-Jul-16 17:57N 59°56' E 030°16'0 0.0
2018-Jul-16 17:30N 59°56' E 030°16'0 0.0
2018-Jul-16 16:57N 59°56' E 030°16'0 0.0
2018-Jul-16 16:31N 59°56' E 030°16'0 0.0
2018-Jul-16 15:57N 59°56' E 030°16'0 0.0
2018-Jul-16 15:30N 59°56' E 030°16'0 0.0
2018-Jul-16 14:57N 59°56' E 030°16'0 0.0
2018-Jul-16 14:30N 59°56' E 030°16'0 0.0
2018-Jul-16 13:58N 59°56' E 030°16'0 0.0
2018-Jul-16 13:25N 59°56' E 030°16'0 0.0
2018-Jul-16 12:57N 59°56' E 030°16'0 0.0
2018-Jul-16 12:25N 59°56' E 030°16'0 0.0
2018-Jul-16 11:57N 59°56' E 030°16'0 0.0
2018-Jul-16 11:25N 59°56' E 030°16'0 0.0
2018-Jul-16 11:00N 59°56' E 030°16'0 0.0
2018-Jul-16 10:24N 59°56' E 030°16'0 0.0
2018-Jul-16 10:01N 59°56' E 030°16'0 0.0
2018-Jul-16 09:24N 59°56' E 030°16'0 0.0
2018-Jul-16 09:01N 59°56' E 030°16'0 0.0
2018-Jul-16 08:28N 59°56' E 030°16'0 0.0
2018-Jul-16 08:01N 59°56' E 030°16'0 0.0
2018-Jul-16 07:28N 59°56' E 030°16'0 0.0
2018-Jul-16 06:59N 59°56' E 030°16'0 0.0
2018-Jul-16 06:28N 59°56' E 030°16'0 0.0
2018-Jul-16 06:00N 59°56' E 030°16'0 0.0
2018-Jul-16 05:28N 59°56' E 030°16'1 1.6
2018-Jul-16 05:00N 59°55' E 030°16'3 5.3
2018-Jul-16 04:30N 59°53' E 030°12'3 5.6
2018-Jul-16 03:58N 59°54' E 030°06'5 9.7
2018-Jul-16 03:31N 59°56' E 029°58'610.7
2018-Jul-16 03:00N 59°58' E 029°48'1011.2
2018-Jul-16 02:05N 60°01' E 029°29'111.0
2018-Jul-16 01:59N 60°01' E 029°27'713.9
2018-Jul-16 01:30N 60°02' E 029°13'712.9
2018-Jul-16 00:58N 60°02' E 028°59'510.0
2018-Jul-16 00:30N 60°02' E 028°50'612.3
2018-Jul-16 00:00N 60°02' E 028°38'612.1
2018-Jul-15 23:30N 60°03' E 028°26'612.2
2018-Jul-15 23:00N 60°07' E 028°16'612.3
2018-Jul-15 22:30N 60°09' E 028°04'612.2
2018-Jul-15 22:00N 60°10' E 027°53'611.4
2018-Jul-15 21:30N 60°09' E 027°41'612.1
2018-Jul-15 21:00N 60°06' E 027°31'612.3
2018-Jul-15 20:30N 60°03' E 027°20'612.4
2018-Jul-15 20:00N 59°60' E 027°10'611.8
2018-Jul-15 19:30N 59°58' E 026°58'612.5
2018-Jul-15 19:00N 59°59' E 026°46'612.4
2018-Jul-15 18:30N 59°59' E 026°34'612.5
2018-Jul-15 18:00N 59°57' E 026°22'612.4
2018-Jul-15 17:29N 59°56' E 026°09'612.7
2018-Jul-15 17:00N 59°54' E 025°57'613.1
2018-Jul-15 16:30N 59°53' E 025°45'612.6
2018-Jul-15 16:00N 59°54' E 025°32'713.4
2018-Jul-15 15:30N 59°56' E 025°20'713.5
2018-Jul-15 15:00N 59°59' E 025°08'612.8
2018-Jul-15 14:30N 60°03' E 024°57'612.7
2018-Jul-15 14:00N 60°09' E 024°60'2 3.3
2018-Jul-15 13:30N 60°10' E 024°58'0 0.0
2018-Jul-15 13:00N 60°10' E 024°58'0 0.0
2018-Jul-15 12:30N 60°10' E 024°58'0 0.0
2018-Jul-15 12:00N 60°10' E 024°58'0 0.0
2018-Jul-15 11:30N 60°10' E 024°58'0 0.0
2018-Jul-15 11:00N 60°10' E 024°58'0 0.0
2018-Jul-15 10:27N 60°10' E 024°58'0 0.0
2018-Jul-15 10:00N 60°10' E 024°58'0 0.0
2018-Jul-15 09:30N 60°10' E 024°58'1 2.6
2018-Jul-15 09:01N 60°09' E 024°60'510.6
2018-Jul-15 08:30N 60°04' E 024°58'5 9.0
2018-Jul-15 08:00N 59°60' E 024°57'4 9.0
2018-Jul-15 07:31N 59°55' E 024°55'611.4
2018-Jul-15 07:00N 59°50' E 024°49'611.7
2018-Jul-15 06:30N 59°46' E 024°41'612.9
2018-Jul-15 06:00N 59°45' E 024°28'612.8
2018-Jul-15 05:30N 59°43' E 024°16'613.0
2018-Jul-15 05:00N 59°41' E 024°04'713.2
2018-Jul-15 04:30N 59°39' E 023°52'713.3
2018-Jul-15 04:00N 59°37' E 023°39'713.2
2018-Jul-15 03:30N 59°35' E 023°27'713.1
2018-Jul-15 03:00N 59°33' E 023°14'713.1
2018-Jul-15 02:30N 59°31' E 023°02'713.1
2018-Jul-15 02:01N 59°29' E 022°50'713.0
2018-Jul-15 01:30N 59°26' E 022°38'813.0
2018-Jul-15 00:52N 59°23' E 022°23'512.9
2018-Jul-15 00:30N 59°22' E 022°14'713.1
2018-Jul-15 00:00N 59°22' E 022°01'613.0
2018-Jul-14 23:30N 59°21' E 021°48'713.0
2018-Jul-14 23:00N 59°21' E 021°36'712.9
2018-Jul-14 22:30N 59°20' E 021°23'612.9
2018-Jul-14 22:00N 59°19' E 021°10'713.2
2018-Jul-14 21:30N 59°19' E 020°58'3213.8
2018-Jul-14 19:09N 59°16' E 019°54'213.7
2018-Jul-14 19:00N 59°16' E 019°50'713.7
2018-Jul-14 18:31N 59°15' E 019°37'713.6
2018-Jul-14 18:01N 59°15' E 019°24'713.6
2018-Jul-14 17:30N 59°14' E 019°10'612.4
2018-Jul-14 17:00N 59°16' E 018°59'611.0
2018-Jul-14 16:30N 59°19' E 018°49'612.1
2018-Jul-14 16:00N 59°23' E 018°40'611.5
2018-Jul-14 15:30N 59°25' E 018°30'2 4.2
2018-Jul-14 15:00N 59°24' E 018°27'3 5.3
2018-Jul-14 14:30N 59°22' E 018°23'9 9.5
2018-Jul-14 13:31N 59°19' E 018°05'0 0.0
2018-Jul-14 12:59N 59°19' E 018°05'0 0.0
2018-Jul-14 12:29N 59°19' E 018°05'0 0.0
2018-Jul-14 11:59N 59°19' E 018°05'0 0.0
2018-Jul-14 11:29N 59°19' E 018°05'0 0.0
2018-Jul-14 10:59N 59°19' E 018°05'0 0.0
2018-Jul-14 10:29N 59°19' E 018°05'0 0.0
2018-Jul-14 09:59N 59°19' E 018°05'0 0.0
2018-Jul-14 09:29N 59°19' E 018°05'0 0.0
2018-Jul-14 08:59N 59°19' E 018°05'0 0.9
2018-Jul-14 08:30N 59°19' E 018°06'5 9.3
2018-Jul-14 08:00N 59°21' E 018°14'510.4
2018-Jul-14 07:30N 59°24' E 018°23'2 4.0
2018-Jul-14 07:00N 59°26' E 018°24'5 8.7
2018-Jul-14 06:28N 59°24' E 018°32'611.4
2018-Jul-14 05:57N 59°22' E 018°43'612.6
2018-Jul-14 05:30N 59°18' E 018°51'611.1
2018-Jul-14 05:00N 59°15' E 019°00'612.2
2018-Jul-14 04:30N 59°14' E 019°12'510.8
2018-Jul-14 04:00N 59°15' E 019°23'611.5
2018-Jul-14 03:27N 59°16' E 019°35'612.6
2018-Jul-14 02:57N 59°18' E 019°47'612.7
2018-Jul-14 02:30N 59°18' E 019°58'612.7
2018-Jul-14 02:00N 59°19' E 020°10'1212.7
2018-Jul-14 01:03N 59°21' E 020°34'211.9
2018-Jul-14 00:54N 59°21' E 020°38'512.3
2018-Jul-14 00:30N 59°22' E 020°47'612.2
2018-Jul-14 00:00N 59°23' E 020°59'612.3
2018-Jul-13 23:29N 59°23' E 021°11'612.4
2018-Jul-13 23:00N 59°24' E 021°23'612.4
2018-Jul-13 22:30N 59°25' E 021°35'612.4
2018-Jul-13 22:00N 59°26' E 021°47'712.4
2018-Jul-13 21:25N 59°27' E 022°01'1212.4
2018-Jul-13 20:29N 59°29' E 022°23'1312.2
2018-Jul-13 19:25N 59°33' E 022°48'512.2
2018-Jul-13 19:00N 59°35' E 022°58'612.1
2018-Jul-13 18:30N 59°36' E 023°09'612.1
2018-Jul-13 18:00N 59°38' E 023°20'612.4
2018-Jul-13 17:30N 59°40' E 023°32'612.5
2018-Jul-13 17:00N 59°41' E 023°44'612.4
2018-Jul-13 16:30N 59°43' E 023°56'612.5
2018-Jul-13 16:00N 59°45' E 024°08'612.6
2018-Jul-13 15:30N 59°47' E 024°20'612.6
2018-Jul-13 15:00N 59°50' E 024°30'613.2
2018-Jul-13 14:30N 59°54' E 024°41'1212.3
2018-Jul-13 13:30N 60°03' E 024°57'612.4
2018-Jul-13 13:00N 60°09' E 024°60'1 2.3
2018-Jul-13 12:24N 60°10' E 024°57'0 0.0
2018-Jul-13 11:54N 60°10' E 024°57'0 0.0
2018-Jul-13 11:30N 60°10' E 024°57'0 0.0
2018-Jul-13 10:54N 60°10' E 024°57'0 0.0
2018-Jul-13 10:30N 60°10' E 024°57'0 0.0
2018-Jul-13 09:57N 60°10' E 024°57'0 0.0
2018-Jul-13 09:30N 60°10' E 024°57'0 0.0
2018-Jul-13 09:00N 60°10' E 024°57'0 0.0
2018-Jul-13 08:30N 60°10' E 024°57'0 0.0
2018-Jul-13 08:00N 60°10' E 024°57'0 0.0
2018-Jul-13 07:27N 60°10' E 024°57'0 0.0
2018-Jul-13 07:00N 60°10' E 024°57'0 0.0
2018-Jul-13 06:27N 60°10' E 024°57'0 0.0
2018-Jul-13 06:00N 60°10' E 024°57'0 0.0
2018-Jul-13 05:30N 60°10' E 024°57'3 5.9
2018-Jul-13 05:01N 60°07' E 024°59'611.3
2018-Jul-13 04:31N 60°01' E 024°58'611.4
2018-Jul-13 04:00N 59°57' E 025°07'713.1
2018-Jul-13 03:31N 59°55' E 025°19'714.2
2018-Jul-13 03:00N 59°55' E 025°33'714.0
2018-Jul-13 02:31N 59°55' E 025°47'714.1
2018-Jul-13 02:00N 59°57' E 026°01'713.9
2018-Jul-13 01:31N 59°59' E 026°14'713.8
2018-Jul-13 01:00N 60°01' E 026°27'713.5
2018-Jul-13 00:30N 60°01' E 026°41'713.7
2018-Jul-13 00:00N 59°60' E 026°54'612.9
2018-Jul-12 23:31N 60°01' E 027°07'713.6
2018-Jul-12 23:00N 60°04' E 027°19'713.8
2018-Jul-12 22:30N 60°08' E 027°31'713.8
2018-Jul-12 22:00N 60°11' E 027°43'713.1
2018-Jul-12 21:30N 60°11' E 027°56'713.8
2018-Jul-12 21:01N 60°09' E 028°09'713.5
2018-Jul-12 20:31N 60°06' E 028°21'713.6
2018-Jul-12 20:00N 60°03' E 028°34'713.8
2018-Jul-12 19:30N 60°03' E 028°48'916.5
2018-Jul-12 18:56N 60°02' E 029°06'2011.7
2018-Jul-12 17:14N 59°59' E 029°45'310.3
2018-Jul-12 16:58N 59°57' E 029°50'714.2
2018-Jul-12 16:30N 59°55' E 030°02'4 7.9
2018-Jul-12 15:58N 59°53' E 030°10'3 6.6
2018-Jul-12 15:31N 59°55' E 030°15'1 2.4
2018-Jul-12 15:00N 59°56' E 030°17'0 0.2
2018-Jul-12 14:24N 59°56' E 030°16'0 0.0
2018-Jul-12 13:51N 59°56' E 030°16'0 0.0
2018-Jul-12 13:24N 59°56' E 030°16'0 0.0
2018-Jul-12 13:00N 59°56' E 030°16'0 0.0
2018-Jul-12 12:27N 59°56' E 030°16'0 0.0
2018-Jul-12 12:00N 59°56' E 030°16'0 0.0
2018-Jul-12 11:18N 59°56' E 030°16'0 0.0
2018-Jul-12 11:00N 59°56' E 030°16'0 0.0
2018-Jul-12 10:27N 59°56' E 030°16'0 0.0
2018-Jul-12 10:00N 59°56' E 030°16'0 0.0
2018-Jul-12 09:27N 59°56' E 030°16'0 0.0
2018-Jul-12 09:00N 59°56' E 030°16'0 0.0
2018-Jul-12 08:27N 59°56' E 030°16'0 0.0
2018-Jul-12 08:00N 59°56' E 030°16'0 0.0
2018-Jul-12 07:30N 59°56' E 030°16'0 0.0
2018-Jul-12 06:57N 59°56' E 030°16'0 0.0
2018-Jul-12 06:24N 59°56' E 030°16'0 0.0
2018-Jul-12 05:51N 59°56' E 030°16'0 0.0
2018-Jul-12 05:24N 59°56' E 030°16'0 0.0
2018-Jul-12 04:58N 59°56' E 030°16'0 0.0
2018-Jul-12 04:28N 59°56' E 030°16'0 0.0
2018-Jul-12 03:57N 59°56' E 030°16'0 0.0
2018-Jul-12 03:27N 59°56' E 030°16'0 0.0
2018-Jul-12 03:00N 59°56' E 030°16'0 0.0
2018-Jul-12 02:10N 59°56' E 030°16'0 0.0
2018-Jul-12 00:51N 59°56' E 030°16'0 0.0
2018-Jul-12 00:18N 59°56' E 030°16'0 0.0
2018-Jul-11 23:39N 59°56' E 030°16'0 0.0
2018-Jul-11 23:24N 59°56' E 030°16'0 0.0
2018-Jul-11 22:57N 59°56' E 030°16'0 0.0
2018-Jul-11 22:24N 59°56' E 030°16'0 0.0
2018-Jul-11 21:57N 59°56' E 030°16'0 0.0
2018-Jul-11 21:22N 59°56' E 030°16'0 0.0
2018-Jul-11 20:56N 59°56' E 030°16'0 0.0
2018-Jul-11 19:30N 59°56' E 030°16'0 0.0
2018-Jul-11 17:24N 59°56' E 030°16'0 0.0
2018-Jul-11 16:40N 59°56' E 030°16'0 0.0
2018-Jul-11 16:27N 59°56' E 030°16'0 0.0
2018-Jul-11 15:54N 59°56' E 030°16'0 0.0
2018-Jul-11 15:27N 59°56' E 030°16'0 0.0
2018-Jul-11 14:37N 59°56' E 030°16'0 0.0
2018-Jul-11 14:27N 59°56' E 030°16'0 0.0
2018-Jul-11 13:51N 59°56' E 030°16'0 0.0
2018-Jul-11 13:27N 59°56' E 030°16'0 0.0
2018-Jul-11 13:00N 59°56' E 030°16'0 0.0
2018-Jul-11 12:31N 59°56' E 030°16'0 0.0
2018-Jul-11 11:59N 59°56' E 030°16'0 0.0
2018-Jul-11 11:15N 59°56' E 030°16'0 0.0
2018-Jul-11 10:55N 59°56' E 030°16'0 0.0
2018-Jul-11 10:19N 59°56' E 030°16'0 0.0
2018-Jul-11 10:00N 59°56' E 030°16'0 0.0
2018-Jul-11 09:15N 59°56' E 030°16'0 0.0
2018-Jul-11 08:52N 59°56' E 030°16'0 0.0
2018-Jul-11 05:39N 59°56' E 030°16'0 0.0
2018-Jul-11 05:27N 59°56' E 030°16'2 4.9
2018-Jul-11 04:58N 59°54' E 030°13'3 5.7
2018-Jul-11 04:30N 59°54' E 030°08'4 7.4
2018-Jul-11 04:00N 59°55' E 030°01'611.0
2018-Jul-11 03:30N 59°57' E 029°51'15 9.6
2018-Jul-11 01:59N 60°01' E 029°23'510.6
2018-Jul-11 01:30N 60°02' E 029°13'711.7
2018-Jul-11 00:57N 60°02' E 028°60'512.4
2018-Jul-11 00:30N 60°02' E 028°49'612.6
2018-Jul-11 00:00N 60°02' E 028°36'613.2
2018-Jul-10 23:31N 60°04' E 028°24'713.5
2018-Jul-10 23:00N 60°08' E 028°12'713.8
2018-Jul-10 22:30N 60°09' E 027°59'713.6
2018-Jul-10 22:01N 60°11' E 027°46'713.6
2018-Jul-10 21:31N 60°07' E 027°34'713.2
2018-Jul-10 21:00N 60°04' E 027°23'713.4
2018-Jul-10 20:30N 60°00' E 027°11'712.7
2018-Jul-10 20:00N 59°58' E 026°59'713.5
2018-Jul-10 19:31N 59°59' E 026°46'713.0
2018-Jul-10 19:00N 59°59' E 026°33'714.1
2018-Jul-10 18:30N 59°57' E 026°19'2413.4
2018-Jul-10 16:43N 59°50' E 025°33'713.7
2018-Jul-10 16:13N 59°49' E 025°20'313.7
2018-Jul-10 16:00N 59°48' E 025°14'713.6
2018-Jul-10 15:30N 59°46' E 025°01'714.2
2018-Jul-10 15:00N 59°42' E 024°50'613.0
2018-Jul-10 14:30N 59°37' E 024°41'713.4
2018-Jul-10 14:01N 59°31' E 024°45'4 7.2
2018-Jul-10 13:28N 59°27' E 024°46'0 0.0
2018-Jul-10 12:58N 59°27' E 024°46'0 0.0
2018-Jul-10 12:28N 59°27' E 024°46'0 0.0
2018-Jul-10 12:00N 59°27' E 024°46'0 0.0
2018-Jul-10 11:29N 59°27' E 024°46'0 0.0
2018-Jul-10 10:58N 59°27' E 024°46'0 0.0
2018-Jul-10 10:30N 59°27' E 024°46'0 0.0
2018-Jul-10 09:58N 59°27' E 024°46'0 0.0
2018-Jul-10 09:28N 59°27' E 024°46'0 0.0
2018-Jul-10 08:58N 59°27' E 024°46'0 0.0
2018-Jul-10 08:30N 59°27' E 024°46'0 0.0
2018-Jul-10 07:58N 59°27' E 024°46'0 0.0
2018-Jul-10 07:28N 59°27' E 024°46'0 0.0
2018-Jul-10 06:59N 59°27' E 024°46'0 0.0
2018-Jul-10 06:16N 59°27' E 024°46'0 1.0
2018-Jul-10 06:00N 59°27' E 024°46'3 4.8
2018-Jul-10 05:17N 59°30' E 024°43'311.7
2018-Jul-10 04:59N 59°30' E 024°36'612.9
2018-Jul-10 04:30N 59°30' E 024°24'  
Track history (hours):
 
Tides and Currents Weather Stations Pressure Air Temp Water Temp Dewpoint Dewpoint Depression Visibility Wind Speed Wind Dir Waves Ship Positions

Clio

Last reported at 2018-Jul-18 17:57 UTC. Time now 2018-Jul-21 11:01 UTC.
Position N 59°15' E 023°11'.

Length 100 m; draft 3.4 m.

Type: Passenger vessel. MMSI: 249596000.

Date/timePositionNaut miles runAvg speedWind from/ knotsBaromVisibWave heightAir tempDewpointWater temp
2018-Jul-18 17:57N 59°15' E 023°11'613.0
2018-Jul-18 17:30N 59°20' E 023°19'713.2
2018-Jul-18 17:00N 59°22' E 023°30'713.3
2018-Jul-18 16:31N 59°25' E 023°43'713.2
2018-Jul-18 16:00N 59°27' E 023°55'713.2
2018-Jul-18 15:30N 59°29' E 024°07'713.2
2018-Jul-18 15:00N 59°30' E 024°20'713.4
2018-Jul-18 14:30N 59°30' E 024°33'7 7.4
2018-Jul-18 13:31N 59°27' E 024°46'0 0.0
2018-Jul-18 12:57N 59°27' E 024°46'0 0.0
2018-Jul-18 12:27N 59°27' E 024°46'0 0.0
2018-Jul-18 11:44N 59°27' E 024°46'0 0.0
2018-Jul-18 11:30N 59°27' E 024°46'0 0.0
2018-Jul-18 10:28N 59°27' E 024°46'0 0.0
2018-Jul-18 09:57N 59°27' E 024°46'0 0.0
2018-Jul-18 09:30N 59°27' E 024°46'0 0.0
2018-Jul-18 08:57N 59°27' E 024°46'0 0.0
2018-Jul-18 08:29N 59°27' E 024°46'0 0.0
2018-Jul-18 07:57N 59°27' E 024°46'0 0.0
2018-Jul-18 07:28N 59°27' E 024°46'0 0.0
2018-Jul-18 06:57N 59°27' E 024°46'0 0.0
2018-Jul-18 06:30N 59°27' E 024°46'3 5.1
2018-Jul-18 06:01N 59°29' E 024°45'713.7
2018-Jul-18 05:31N 59°36' E 024°40'611.5
2018-Jul-18 05:01N 59°41' E 024°45'510.8
2018-Jul-18 04:31N 59°45' E 024°52'612.3
2018-Jul-18 04:00N 59°49' E 025°01'713.9
2018-Jul-18 03:30N 59°52' E 025°14'714.1
2018-Jul-18 03:00N 59°53' E 025°28'914.3
2018-Jul-18 02:23N 59°55' E 025°45'514.1
2018-Jul-18 02:00N 59°56' E 025°55'713.8
2018-Jul-18 01:31N 59°58' E 026°08'713.9
2018-Jul-18 01:00N 59°60' E 026°22'714.2
2018-Jul-18 00:30N 60°02' E 026°36'714.5
2018-Jul-18 00:01N 60°00' E 026°50'714.2
2018-Jul-17 23:31N 59°60' E 027°04'714.1
2018-Jul-17 23:01N 60°03' E 027°16'714.3
2018-Jul-17 22:31N 60°07' E 027°28'714.4
2018-Jul-17 22:01N 60°11' E 027°41'713.0
2018-Jul-17 21:30N 60°11' E 027°54'714.0
2018-Jul-17 21:00N 60°09' E 028°08'713.5
2018-Jul-17 20:30N 60°07' E 028°20'714.0
2018-Jul-17 20:01N 60°03' E 028°32'714.4
2018-Jul-17 19:31N 60°03' E 028°47'714.2
2018-Jul-17 19:01N 60°02' E 029°01'2313.3
2018-Jul-17 17:16N 59°58' E 029°47'2 6.5
2018-Jul-17 17:00N 59°57' E 029°49'610.3
2018-Jul-17 16:27N 59°55' E 029°60'4 9.6
2018-Jul-17 16:00N 59°54' E 030°08'3 5.6
2018-Jul-17 15:28N 59°54' E 030°14'2 4.1
2018-Jul-17 15:00N 59°56' E 030°16'0 0.0
2018-Jul-17 14:26N 59°56' E 030°16'0 0.0
2018-Jul-17 13:54N 59°56' E 030°16'0 0.0
2018-Jul-17 13:28N 59°56' E 030°16'0 0.0
2018-Jul-17 12:54N 59°56' E 030°16'0 0.0
2018-Jul-17 12:28N 59°56' E 030°16'0 0.0
2018-Jul-17 11:55N 59°56' E 030°16'0 0.0
2018-Jul-17 11:31N 59°56' E 030°16'0 0.0
2018-Jul-17 10:58N 59°56' E 030°16'0 0.0
2018-Jul-17 10:30N 59°56' E 030°16'0 0.0
2018-Jul-17 09:58N 59°56' E 030°16'0 0.0
2018-Jul-17 09:29N 59°56' E 030°16'0 0.0
2018-Jul-17 08:55N 59°56' E 030°16'0 0.0
2018-Jul-17 08:31N 59°56' E 030°16'0 0.0
2018-Jul-17 07:57N 59°56' E 030°16'0 0.0
2018-Jul-17 07:30N 59°56' E 030°16'0 0.0
2018-Jul-17 06:58N 59°56' E 030°16'0 0.0
2018-Jul-17 06:31N 59°56' E 030°16'0 0.0
2018-Jul-17 05:58N 59°56' E 030°16'0 0.0
2018-Jul-17 05:25N 59°56' E 030°16'0 0.0
2018-Jul-17 05:00N 59°56' E 030°16'0 0.0
2018-Jul-17 04:27N 59°56' E 030°16'0 0.0
2018-Jul-17 03:57N 59°56' E 030°16'0 0.0
2018-Jul-17 03:27N 59°56' E 030°16'0 0.0
2018-Jul-17 02:58N 59°56' E 030°16'0 0.0
2018-Jul-17 02:27N 59°56' E 030°16'0 0.0
2018-Jul-17 01:58N 59°56' E 030°16'0 0.0
2018-Jul-17 01:27N 59°56' E 030°16'0 0.0
2018-Jul-17 01:01N 59°56' E 030°16'0 0.0
2018-Jul-17 00:25N 59°56' E 030°16'0 0.0
2018-Jul-16 23:27N 59°56' E 030°16'0 0.0
2018-Jul-16 23:00N 59°56' E 030°16'0 0.0
2018-Jul-16 22:28N 59°56' E 030°16'0 0.0
2018-Jul-16 21:57N 59°56' E 030°16'0 0.0
2018-Jul-16 21:27N 59°56' E 030°16'0 0.0
2018-Jul-16 20:57N 59°56' E 030°16'0 0.0
2018-Jul-16 20:28N 59°56' E 030°16'0 0.0
2018-Jul-16 19:57N 59°56' E 030°16'0 0.0
2018-Jul-16 19:30N 59°56' E 030°16'0 0.0
2018-Jul-16 18:57N 59°56' E 030°16'0 0.0
2018-Jul-16 18:30N 59°56' E 030°16'0 0.0
2018-Jul-16 17:57N 59°56' E 030°16'0 0.0
2018-Jul-16 17:30N 59°56' E 030°16'0 0.0
2018-Jul-16 16:57N 59°56' E 030°16'0 0.0
2018-Jul-16 16:31N 59°56' E 030°16'0 0.0
2018-Jul-16 15:57N 59°56' E 030°16'0 0.0
2018-Jul-16 15:30N 59°56' E 030°16'0 0.0
2018-Jul-16 14:57N 59°56' E 030°16'0 0.0
2018-Jul-16 14:30N 59°56' E 030°16'0 0.0
2018-Jul-16 13:58N 59°56' E 030°16'0 0.0
2018-Jul-16 13:25N 59°56' E 030°16'0 0.0
2018-Jul-16 12:57N 59°56' E 030°16'0 0.0
2018-Jul-16 12:25N 59°56' E 030°16'0 0.0
2018-Jul-16 11:57N 59°56' E 030°16'0 0.0
2018-Jul-16 11:25N 59°56' E 030°16'0 0.0
2018-Jul-16 11:00N 59°56' E 030°16'0 0.0
2018-Jul-16 10:24N 59°56' E 030°16'0 0.0
2018-Jul-16 10:01N 59°56' E 030°16'0 0.0
2018-Jul-16 09:24N 59°56' E 030°16'0 0.0
2018-Jul-16 09:01N 59°56' E 030°16'0 0.0
2018-Jul-16 08:28N 59°56' E 030°16'0 0.0
2018-Jul-16 08:01N 59°56' E 030°16'0 0.0
2018-Jul-16 07:28N 59°56' E 030°16'0 0.0
2018-Jul-16 06:59N 59°56' E 030°16'0 0.0
2018-Jul-16 06:28N 59°56' E 030°16'0 0.0
2018-Jul-16 06:00N 59°56' E 030°16'0 0.0
2018-Jul-16 05:28N 59°56' E 030°16'1 1.6
2018-Jul-16 05:00N 59°55' E 030°16'3 5.3
2018-Jul-16 04:30N 59°53' E 030°12'3 5.6
2018-Jul-16 03:58N 59°54' E 030°06'5 9.7
2018-Jul-16 03:31N 59°56' E 029°58'610.7
2018-Jul-16 03:00N 59°58' E 029°48'1011.2
2018-Jul-16 02:05N 60°01' E 029°29'111.0
2018-Jul-16 01:59N 60°01' E 029°27'713.9
2018-Jul-16 01:30N 60°02' E 029°13'712.9
2018-Jul-16 00:58N 60°02' E 028°59'510.0
2018-Jul-16 00:30N 60°02' E 028°50'612.3
2018-Jul-16 00:00N 60°02' E 028°38'612.1
2018-Jul-15 23:30N 60°03' E 028°26'612.2
2018-Jul-15 23:00N 60°07' E 028°16'612.3
2018-Jul-15 22:30N 60°09' E 028°04'612.2
2018-Jul-15 22:00N 60°10' E 027°53'611.4
2018-Jul-15 21:30N 60°09' E 027°41'612.1
2018-Jul-15 21:00N 60°06' E 027°31'612.3
2018-Jul-15 20:30N 60°03' E 027°20'612.4
2018-Jul-15 20:00N 59°60' E 027°10'611.8
2018-Jul-15 19:30N 59°58' E 026°58'612.5
2018-Jul-15 19:00N 59°59' E 026°46'612.4
2018-Jul-15 18:30N 59°59' E 026°34'612.5
2018-Jul-15 18:00N 59°57' E 026°22'612.4
2018-Jul-15 17:29N 59°56' E 026°09'612.7
2018-Jul-15 17:00N 59°54' E 025°57'613.1
2018-Jul-15 16:30N 59°53' E 025°45'612.6
2018-Jul-15 16:00N 59°54' E 025°32'713.4
2018-Jul-15 15:30N 59°56' E 025°20'713.5
2018-Jul-15 15:00N 59°59' E 025°08'612.8
2018-Jul-15 14:30N 60°03' E 024°57'612.7
2018-Jul-15 14:00N 60°09' E 024°60'2 3.3
2018-Jul-15 13:30N 60°10' E 024°58'0 0.0
2018-Jul-15 13:00N 60°10' E 024°58'0 0.0
2018-Jul-15 12:30N 60°10' E 024°58'0 0.0
2018-Jul-15 12:00N 60°10' E 024°58'0 0.0
2018-Jul-15 11:30N 60°10' E 024°58'0 0.0
2018-Jul-15 11:00N 60°10' E 024°58'0 0.0
2018-Jul-15 10:27N 60°10' E 024°58'0 0.0
2018-Jul-15 10:00N 60°10' E 024°58'0 0.0
2018-Jul-15 09:30N 60°10' E 024°58'1 2.6
2018-Jul-15 09:01N 60°09' E 024°60'510.6
2018-Jul-15 08:30N 60°04' E 024°58'5 9.0
2018-Jul-15 08:00N 59°60' E 024°57'4 9.0
2018-Jul-15 07:31N 59°55' E 024°55'611.4
2018-Jul-15 07:00N 59°50' E 024°49'611.7
2018-Jul-15 06:30N 59°46' E 024°41'612.9
2018-Jul-15 06:00N 59°45' E 024°28'612.8
2018-Jul-15 05:30N 59°43' E 024°16'613.0
2018-Jul-15 05:00N 59°41' E 024°04'713.2
2018-Jul-15 04:30N 59°39' E 023°52'713.3
2018-Jul-15 04:00N 59°37' E 023°39'713.2
2018-Jul-15 03:30N 59°35' E 023°27'713.1
2018-Jul-15 03:00N 59°33' E 023°14'713.1
2018-Jul-15 02:30N 59°31' E 023°02'713.1
2018-Jul-15 02:01N 59°29' E 022°50'713.0
2018-Jul-15 01:30N 59°26' E 022°38'813.0
2018-Jul-15 00:52N 59°23' E 022°23'512.9
2018-Jul-15 00:30N 59°22' E 022°14'713.1
2018-Jul-15 00:00N 59°22' E 022°01'613.0
2018-Jul-14 23:30N 59°21' E 021°48'713.0
2018-Jul-14 23:00N 59°21' E 021°36'712.9
2018-Jul-14 22:30N 59°20' E 021°23'612.9
2018-Jul-14 22:00N 59°19' E 021°10'713.2
2018-Jul-14 21:30N 59°19' E 020°58'3213.8
2018-Jul-14 19:09N 59°16' E 019°54'213.7
2018-Jul-14 19:00N 59°16' E 019°50'713.7
2018-Jul-14 18:31N 59°15' E 019°37'713.6
2018-Jul-14 18:01N 59°15' E 019°24'713.6
2018-Jul-14 17:30N 59°14' E 019°10'612.4
2018-Jul-14 17:00N 59°16' E 018°59'611.0
2018-Jul-14 16:30N 59°19' E 018°49'612.1
2018-Jul-14 16:00N 59°23' E 018°40'611.5
2018-Jul-14 15:30N 59°25' E 018°30'2 4.2
2018-Jul-14 15:00N 59°24' E 018°27'3 5.3
2018-Jul-14 14:30N 59°22' E 018°23'9 9.5
2018-Jul-14 13:31N 59°19' E 018°05'0 0.0
2018-Jul-14 12:59N 59°19' E 018°05'0 0.0
2018-Jul-14 12:29N 59°19' E 018°05'0 0.0
2018-Jul-14 11:59N 59°19' E 018°05'0 0.0
2018-Jul-14 11:29N 59°19' E 018°05'0 0.0
2018-Jul-14 10:59N 59°19' E 018°05'0 0.0
2018-Jul-14 10:29N 59°19' E 018°05'0 0.0
2018-Jul-14 09:59N 59°19' E 018°05'0 0.0
2018-Jul-14 09:29N 59°19' E 018°05'0 0.0
2018-Jul-14 08:59N 59°19' E 018°05'0 0.9
2018-Jul-14 08:30N 59°19' E 018°06'5 9.3
2018-Jul-14 08:00N 59°21' E 018°14'510.4
2018-Jul-14 07:30N 59°24' E 018°23'2 4.0
2018-Jul-14 07:00N 59°26' E 018°24'5 8.7
2018-Jul-14 06:28N 59°24' E 018°32'611.4
2018-Jul-14 05:57N 59°22' E 018°43'612.6
2018-Jul-14 05:30N 59°18' E 018°51'611.1
2018-Jul-14 05:00N 59°15' E 019°00'612.2
2018-Jul-14 04:30N 59°14' E 019°12'510.8
2018-Jul-14 04:00N 59°15' E 019°23'611.5
2018-Jul-14 03:27N 59°16' E 019°35'612.6
2018-Jul-14 02:57N 59°18' E 019°47'612.7
2018-Jul-14 02:30N 59°18' E 019°58'612.7
2018-Jul-14 02:00N 59°19' E 020°10'1212.7
2018-Jul-14 01:03N 59°21' E 020°34'211.9
2018-Jul-14 00:54N 59°21' E 020°38'512.3
2018-Jul-14 00:30N 59°22' E 020°47'612.2
2018-Jul-14 00:00N 59°23' E 020°59'612.3
2018-Jul-13 23:29N 59°23' E 021°11'612.4
2018-Jul-13 23:00N 59°24' E 021°23'612.4
2018-Jul-13 22:30N 59°25' E 021°35'612.4
2018-Jul-13 22:00N 59°26' E 021°47'712.4
2018-Jul-13 21:25N 59°27' E 022°01'1212.4
2018-Jul-13 20:29N 59°29' E 022°23'1312.2
2018-Jul-13 19:25N 59°33' E 022°48'512.2
2018-Jul-13 19:00N 59°35' E 022°58'612.1
2018-Jul-13 18:30N 59°36' E 023°09'612.1
2018-Jul-13 18:00N 59°38' E 023°20'612.4
2018-Jul-13 17:30N 59°40' E 023°32'612.5
2018-Jul-13 17:00N 59°41' E 023°44'612.4
2018-Jul-13 16:30N 59°43' E 023°56'612.5
2018-Jul-13 16:00N 59°45' E 024°08'612.6
2018-Jul-13 15:30N 59°47' E 024°20'612.6
2018-Jul-13 15:00N 59°50' E 024°30'613.2
2018-Jul-13 14:30N 59°54' E 024°41'1212.3
2018-Jul-13 13:30N 60°03' E 024°57'612.4
2018-Jul-13 13:00N 60°09' E 024°60'1 2.3
2018-Jul-13 12:24N 60°10' E 024°57'0 0.0
2018-Jul-13 11:54N 60°10' E 024°57'0 0.0
2018-Jul-13 11:30N 60°10' E 024°57'0 0.0
2018-Jul-13 10:54N 60°10' E 024°57'0 0.0
2018-Jul-13 10:30N 60°10' E 024°57'0 0.0
2018-Jul-13 09:57N 60°10' E 024°57'0 0.0
2018-Jul-13 09:30N 60°10' E 024°57'0 0.0
2018-Jul-13 09:00N 60°10' E 024°57'0 0.0
2018-Jul-13 08:30N 60°10' E 024°57'0 0.0
2018-Jul-13 08:00N 60°10' E 024°57'0 0.0
2018-Jul-13 07:27N 60°10' E 024°57'0 0.0
2018-Jul-13 07:00N 60°10' E 024°57'0 0.0
2018-Jul-13 06:27N 60°10' E 024°57'0 0.0
2018-Jul-13 06:00N 60°10' E 024°57'0 0.0
2018-Jul-13 05:30N 60°10' E 024°57'3 5.9
2018-Jul-13 05:01N 60°07' E 024°59'611.3
2018-Jul-13 04:31N 60°01' E 024°58'611.4
2018-Jul-13 04:00N 59°57' E 025°07'713.1
2018-Jul-13 03:31N 59°55' E 025°19'714.2
2018-Jul-13 03:00N 59°55' E 025°33'714.0
2018-Jul-13 02:31N 59°55' E 025°47'714.1
2018-Jul-13 02:00N 59°57' E 026°01'713.9
2018-Jul-13 01:31N 59°59' E 026°14'713.8
2018-Jul-13 01:00N 60°01' E 026°27'713.5
2018-Jul-13 00:30N 60°01' E 026°41'713.7
2018-Jul-13 00:00N 59°60' E 026°54'612.9
2018-Jul-12 23:31N 60°01' E 027°07'713.6
2018-Jul-12 23:00N 60°04' E 027°19'713.8
2018-Jul-12 22:30N 60°08' E 027°31'713.8
2018-Jul-12 22:00N 60°11' E 027°43'713.1
2018-Jul-12 21:30N 60°11' E 027°56'713.8
2018-Jul-12 21:01N 60°09' E 028°09'713.5
2018-Jul-12 20:31N 60°06' E 028°21'713.6
2018-Jul-12 20:00N 60°03' E 028°34'713.8
2018-Jul-12 19:30N 60°03' E 028°48'916.5
2018-Jul-12 18:56N 60°02' E 029°06'2011.7
2018-Jul-12 17:14N 59°59' E 029°45'310.3
2018-Jul-12 16:58N 59°57' E 029°50'714.2
2018-Jul-12 16:30N 59°55' E 030°02'4 7.9
2018-Jul-12 15:58N 59°53' E 030°10'3 6.6
2018-Jul-12 15:31N 59°55' E 030°15'1 2.4
2018-Jul-12 15:00N 59°56' E 030°17'0 0.2
2018-Jul-12 14:24N 59°56' E 030°16'0 0.0
2018-Jul-12 13:51N 59°56' E 030°16'0 0.0
2018-Jul-12 13:24N 59°56' E 030°16'0 0.0
2018-Jul-12 13:00N 59°56' E 030°16'0 0.0
2018-Jul-12 12:27N 59°56' E 030°16'0 0.0
2018-Jul-12 12:00N 59°56' E 030°16'0 0.0
2018-Jul-12 11:18N 59°56' E 030°16'0 0.0
2018-Jul-12 11:00N 59°56' E 030°16'0 0.0
2018-Jul-12 10:27N 59°56' E 030°16'0 0.0
2018-Jul-12 10:00N 59°56' E 030°16'0 0.0
2018-Jul-12 09:27N 59°56' E 030°16'0 0.0
2018-Jul-12 09:00N 59°56' E 030°16'0 0.0
2018-Jul-12 08:27N 59°56' E 030°16'0 0.0
2018-Jul-12 08:00N 59°56' E 030°16'0 0.0
2018-Jul-12 07:30N 59°56' E 030°16'0 0.0
2018-Jul-12 06:57N 59°56' E 030°16'0 0.0
2018-Jul-12 06:24N 59°56' E 030°16'0 0.0
2018-Jul-12 05:51N 59°56' E 030°16'0 0.0
2018-Jul-12 05:24N 59°56' E 030°16'0 0.0
2018-Jul-12 04:58N 59°56' E 030°16'0 0.0
2018-Jul-12 04:28N 59°56' E 030°16'0 0.0
2018-Jul-12 03:57N 59°56' E 030°16'0 0.0
2018-Jul-12 03:27N 59°56' E 030°16'0 0.0
2018-Jul-12 03:00N 59°56' E 030°16'0 0.0
2018-Jul-12 02:10N 59°56' E 030°16'0 0.0
2018-Jul-12 00:51N 59°56' E 030°16'0 0.0
2018-Jul-12 00:18N 59°56' E 030°16'0 0.0
2018-Jul-11 23:39N 59°56' E 030°16'0 0.0
2018-Jul-11 23:24N 59°56' E 030°16'0 0.0
2018-Jul-11 22:57N 59°56' E 030°16'0 0.0
2018-Jul-11 22:24N 59°56' E 030°16'0 0.0
2018-Jul-11 21:57N 59°56' E 030°16'0 0.0
2018-Jul-11 21:22N 59°56' E 030°16'0 0.0
2018-Jul-11 20:56N 59°56' E 030°16'0 0.0
2018-Jul-11 19:30N 59°56' E 030°16'0 0.0
2018-Jul-11 17:24N 59°56' E 030°16'0 0.0
2018-Jul-11 16:40N 59°56' E 030°16'0 0.0
2018-Jul-11 16:27N 59°56' E 030°16'0 0.0
2018-Jul-11 15:54N 59°56' E 030°16'0 0.0
2018-Jul-11 15:27N 59°56' E 030°16'0 0.0
2018-Jul-11 14:37N 59°56' E 030°16'0 0.0
2018-Jul-11 14:27N 59°56' E 030°16'0 0.0
2018-Jul-11 13:51N 59°56' E 030°16'0 0.0
2018-Jul-11 13:27N 59°56' E 030°16'0 0.0
2018-Jul-11 13:00N 59°56' E 030°16'0 0.0
2018-Jul-11 12:31N 59°56' E 030°16'0 0.0
2018-Jul-11 11:59N 59°56' E 030°16'0 0.0
2018-Jul-11 11:15N 59°56' E 030°16'0 0.0
2018-Jul-11 10:55N 59°56' E 030°16'0 0.0
2018-Jul-11 10:19N 59°56' E 030°16'0 0.0
2018-Jul-11 10:00N 59°56' E 030°16'0 0.0
2018-Jul-11 09:15N 59°56' E 030°16'0 0.0
2018-Jul-11 08:52N 59°56' E 030°16'0 0.0
2018-Jul-11 05:39N 59°56' E 030°16'0 0.0
2018-Jul-11 05:27N 59°56' E 030°16'2 4.9
2018-Jul-11 04:58N 59°54' E 030°13'3 5.7
2018-Jul-11 04:30N 59°54' E 030°08'4 7.4
2018-Jul-11 04:00N 59°55' E 030°01'611.0
2018-Jul-11 03:30N 59°57' E 029°51'15 9.6
2018-Jul-11 01:59N 60°01' E 029°23'510.6
2018-Jul-11 01:30N 60°02' E 029°13'711.7
2018-Jul-11 00:57N 60°02' E 028°60'512.4
2018-Jul-11 00:30N 60°02' E 028°49'612.6
2018-Jul-11 00:00N 60°02' E 028°36'613.2
2018-Jul-10 23:31N 60°04' E 028°24'713.5
2018-Jul-10 23:00N 60°08' E 028°12'713.8
2018-Jul-10 22:30N 60°09' E 027°59'713.6
2018-Jul-10 22:01N 60°11' E 027°46'713.6
2018-Jul-10 21:31N 60°07' E 027°34'713.2
2018-Jul-10 21:00N 60°04' E 027°23'713.4
2018-Jul-10 20:30N 60°00' E 027°11'712.7
2018-Jul-10 20:00N 59°58' E 026°59'713.5
2018-Jul-10 19:31N 59°59' E 026°46'713.0
2018-Jul-10 19:00N 59°59' E 026°33'714.1
2018-Jul-10 18:30N 59°57' E 026°19'2413.4
2018-Jul-10 16:43N 59°50' E 025°33'713.7
2018-Jul-10 16:13N 59°49' E 025°20'313.7
2018-Jul-10 16:00N 59°48' E 025°14'713.6
2018-Jul-10 15:30N 59°46' E 025°01'714.2
2018-Jul-10 15:00N 59°42' E 024°50'613.0
2018-Jul-10 14:30N 59°37' E 024°41'713.4
2018-Jul-10 14:01N 59°31' E 024°45'4 7.2
2018-Jul-10 13:28N 59°27' E 024°46'0 0.0
2018-Jul-10 12:58N 59°27' E 024°46'0 0.0
2018-Jul-10 12:28N 59°27' E 024°46'0 0.0
2018-Jul-10 12:00N 59°27' E 024°46'0 0.0
2018-Jul-10 11:29N 59°27' E 024°46'0 0.0
2018-Jul-10 10:58N 59°27' E 024°46'0 0.0
2018-Jul-10 10:30N 59°27' E 024°46'0 0.0
2018-Jul-10 09:58N 59°27' E 024°46'0 0.0
2018-Jul-10 09:28N 59°27' E 024°46'0 0.0
2018-Jul-10 08:58N 59°27' E 024°46'0 0.0
2018-Jul-10 08:30N 59°27' E 024°46'0 0.0
2018-Jul-10 07:58N 59°27' E 024°46'0 0.0
2018-Jul-10 07:28N 59°27' E 024°46'0 0.0
2018-Jul-10 06:59N 59°27' E 024°46'0 0.0
2018-Jul-10 06:16N 59°27' E 024°46'0 1.0
2018-Jul-10 06:00N 59°27' E 024°46'3 4.8
2018-Jul-10 05:17N 59°30' E 024°43'311.7
2018-Jul-10 04:59N 59°30' E 024°36'612.9
2018-Jul-10 04:30N 59°30' E 024°24'  

Dump ship's entire track history